Pittsford, Vermont
Current Conditions -  °F | °C
As of 3:55 AM on Friday 24 Oct 2014 (Local Time) from KRUT Reporting Station
Overcast Overcast  
Wind Chill: 36°   Ceiling: 1300
Heat Index: 41°   Visibility: 10mi
Dew Point: 39°   Wind: 7mph
Humidity: 93%   Direction: 330°NNW
Pressure: 29.79"   Gusts: NA
Location:  43.71°N, 73.03°W
Report Text: KRUT 240755Z 33006KT 10SM SCT008 OVC013 05/04 A2979 RMK AO1
Loading
Personal Weather Stations






























Interactive Weather Map
Tropical Storm Tracking
New forecast layout! Learn more

10-Day Weather Forecast

Advertisements
Track Severe Weather on mobile